Time;durP1;ratioP1;P1;durP2;ratioP2;P2;SDS_P1;SDS_P2;PMS_P1;PMS_P2;Temp;Humidity;BMP_temperature;BMP_pressure;BME280_temperature;BME280_humidity;BME280_pressure;Samples;Min_cycle;Max_cycle;Signal;HPM_P1;HPM_P2
2022/12/21 00:00:23;;;;;;;28.52;12.82;;;;;;;8.63;67.43;98979.03;5128589;28;20103;-73
2022/12/21 00:03:12;;;;;;;19.92;11.00;;;;;;;8.69;67.29;98979.34;5124496;28;20073;-73
2022/12/21 00:06:04;;;;;;;18.55;9.70;;;;;;;8.73;67.99;98976.44;5125495;28;20138;-73
2022/12/21 00:08:56;;;;;;;17.83;8.70;;;;;;;8.77;68.57;98977.81;5123580;28;20061;-72
2022/12/21 00:11:46;;;;;;;16.10;8.85;;;;;;;8.69;67.85;98955.53;5124314;28;20054;-71
2022/12/21 00:14:36;;;;;;;17.92;9.75;;;;;;;8.40;70.25;98959.84;5125509;28;20664;-73
2022/12/21 00:17:26;;;;;;;17.45;9.88;;;;;;;8.45;69.13;98949.72;5121337;28;20556;-73
2022/12/21 00:20:17;;;;;;;19.67;8.88;;;;;;;8.45;69.24;98960.31;5124618;28;20146;-73
2022/12/21 00:23:06;;;;;;;14.82;8.60;;;;;;;8.62;69.25;98966.78;5137632;28;20043;-71
2022/12/21 00:26:02;;;;;;;18.02;9.38;;;;;;;8.44;69.03;98961.25;5119808;29;20075;-71
2022/12/21 00:28:54;;;;;;;21.10;9.25;;;;;;;8.58;68.89;98960.09;5132501;28;20193;-70
2022/12/21 00:31:43;;;;;;;14.40;9.00;;;;;;;8.65;67.95;98961.25;5126305;28;20051;-71
2022/12/21 00:34:35;;;;;;;17.92;10.18;;;;;;;8.59;69.22;98959.13;5129464;28;20051;-72
2022/12/21 00:37:25;;;;;;;17.85;9.60;;;;;;;8.74;67.85;98954.28;5124681;28;20059;-72
2022/12/21 00:40:16;;;;;;;17.80;9.20;;;;;;;9.02;67.33;98971.25;5125451;28;20047;-72
2022/12/21 00:43:06;;;;;;;18.65;8.93;;;;;;;8.97;67.55;98976.94;5124083;28;20050;-72
2022/12/21 00:45:57;;;;;;;17.40;9.25;;;;;;;8.97;68.25;98979.56;5123514;28;20106;-71
2022/12/21 00:48:48;;;;;;;18.90;9.63;;;;;;;8.77;68.85;98975.19;5125983;28;20094;-71
2022/12/21 00:51:38;;;;;;;17.35;9.18;;;;;;;8.84;68.88;98969.25;5122149;28;20102;-71
2022/12/21 00:54:28;;;;;;;16.50;9.00;;;;;;;8.79;70.06;98968.81;5119952;28;20422;-72
2022/12/21 00:57:18;;;;;;;21.00;9.40;;;;;;;9.33;68.44;98967.56;5118952;28;20086;-71
2022/12/21 01:00:09;;;;;;;15.18;9.20;;;;;;;9.17;68.22;98959.31;5131743;28;20124;-73
2022/12/21 01:02:59;;;;;;;16.35;8.30;;;;;;;9.18;68.66;98971.56;5121318;28;20062;-73
2022/12/21 01:05:51;;;;;;;16.35;9.43;;;;;;;9.35;68.49;98976.22;5126600;28;20057;-73
2022/12/21 01:08:42;;;;;;;13.90;8.70;;;;;;;9.31;68.33;98973.97;5122783;28;20101;-72
2022/12/21 01:11:33;;;;;;;19.63;10.35;;;;;;;9.10;68.55;98953.72;5122321;28;20055;-72
2022/12/21 01:14:22;;;;;;;23.15;9.68;;;;;;;9.24;68.35;98971.03;5124636;28;20051;-72
2022/12/21 01:17:12;;;;;;;17.88;9.90;;;;;;;8.70;70.41;98953.72;5125539;28;20043;-73
2022/12/21 01:20:03;;;;;;;19.27;9.68;;;;;;;8.62;70.55;98962.31;5125468;28;20066;-75
2022/12/21 01:23:00;;;;;;;20.52;10.02;;;;;;;8.32;72.13;98957.84;5126104;28;20043;-74
2022/12/21 01:25:51;;;;;;;19.73;10.45;;;;;;;8.34;72.76;98969.09;5120279;28;20055;-74
2022/12/21 01:28:42;;;;;;;20.58;10.10;;;;;;;8.60;72.47;98966.91;5128316;28;20043;-71
2022/12/21 01:31:33;;;;;;;29.15;11.48;;;;;;;8.56;73.06;98969.94;5126256;28;20047;-74
2022/12/21 01:34:24;;;;;;;17.88;10.40;;;;;;;8.71;72.19;98966.00;5123565;28;20575;-71
2022/12/21 01:37:14;;;;;;;18.05;10.60;;;;;;;8.66;72.08;98960.25;5120718;28;20069;-72
2022/12/21 01:40:05;;;;;;;17.67;9.77;;;;;;;8.52;73.24;98957.97;5119661;28;20168;-71
2022/12/21 01:42:55;;;;;;;18.30;10.02;;;;;;;8.51;72.49;98966.84;5121233;28;20059;-73
2022/12/21 01:45:51;;;;;;;24.58;10.32;;;;;;;8.46;73.76;98968.09;5125604;28;20145;-71
2022/12/21 01:48:48;;;;;;;22.27;10.70;;;;;;;8.04;75.14;98955.84;5125377;28;20129;-72
2022/12/21 01:51:40;;;;;;;20.73;10.50;;;;;;;7.97;75.54;98968.72;5120464;28;20047;-71
2022/12/21 01:54:41;;;;;;;22.13;11.48;;;;;;;8.27;74.95;98964.47;5125366;28;20053;-72
2022/12/21 01:57:33;;;;;;;20.00;10.23;;;;;;;8.19;75.91;98957.19;5119765;28;20786;-72
2022/12/21 02:00:24;;;;;;;20.77;10.90;;;;;;;8.11;75.46;98962.28;5123906;28;20201;-73
2022/12/21 02:03:19;;;;;;;18.52;10.25;;;;;;;7.93;75.94;98947.00;5126372;28;20102;-73
2022/12/21 02:06:23;;;;;;;17.77;10.13;;;;;;;8.07;76.62;98940.56;5128539;28;20075;-76
2022/12/21 02:09:15;;;;;;;21.17;11.20;;;;;;;8.24;75.85;98945.28;5124276;28;20500;-73
2022/12/21 02:12:09;;;;;;;21.55;10.48;;;;;;;7.92;77.99;98941.88;5119710;28;20432;-73
2022/12/21 02:14:59;;;;;;;23.55;10.73;;;;;;;7.97;77.16;98951.06;5121137;28;20126;-73
2022/12/21 02:18:01;;;;;;;19.80;10.70;;;;;;;7.98;77.58;98946.66;5105848;29;20186;-74
2022/12/21 02:21:40;;;;;;;17.02;10.07;;;;;;;8.05;76.93;98925.84;5120086;28;20058;-73
2022/12/21 02:24:49;;;;;;;16.85;9.18;;;;;;;8.54;75.85;98942.81;5123919;28;20477;-75
2022/12/21 02:28:08;;;;;;;19.60;10.02;;;;;;;8.17;77.10;98940.63;5135537;28;20070;-74
2022/12/21 02:31:10;;;;;;;18.67;9.73;;;;;;;8.13;78.32;98937.41;5094877;28;20129;-74
2022/12/21 02:34:10;;;;;;;21.23;9.30;;;;;;;8.33;77.37;98943.66;5131027;28;20630;-73
2022/12/21 02:37:12;;;;;;;18.73;10.10;;;;;;;8.42;77.00;98940.25;5122381;28;20047;-73
2022/12/21 02:40:41;;;;;;;19.05;9.98;;;;;;;8.63;76.02;98942.03;5121952;28;20175;-74
2022/12/21 02:47:13;;;;;;;17.50;9.43;;;;;;;8.73;75.40;98940.25;5122152;28;20070;-75
2022/12/21 02:50:11;;;;;;;17.88;10.43;;;;;;;8.36;77.46;98927.53;5122329;28;20062;-75
2022/12/21 02:53:07;;;;;;;16.70;9.60;;;;;;;8.56;76.78;98931.13;5123382;28;20070;-75
2022/12/21 02:55:58;;;;;;;18.55;9.85;;;;;;;8.60;78.12;98934.34;5120199;28;20054;-75
2022/12/21 02:58:49;;;;;;;20.40;9.68;;;;;;;8.67;76.72;98906.41;5119821;28;20493;-74
2022/12/21 03:02:04;;;;;;;22.48;9.35;;;;;;;8.57;77.00;98927.50;5121940;28;20055;-74
2022/12/21 03:05:12;;;;;;;16.00;8.25;;;;;;;8.80;75.90;98916.75;5128667;28;20059;-74
2022/12/21 03:08:24;;;;;;;18.95;9.23;;;;;;;8.66;77.30;98920.59;5110994;28;20098;-75
2022/12/21 03:11:15;;;;;;;15.13;9.07;;;;;;;8.49;77.57;98908.03;5119460;28;20122;-74
2022/12/21 03:14:13;;;;;;;15.88;9.75;;;;;;;8.50;78.86;98920.25;5124593;28;20470;-75
2022/12/21 03:17:39;;;;;;;17.35;8.63;;;;;;;8.74;76.97;98927.84;5124321;28;20058;-76
2022/12/21 03:21:06;;;;;;;16.60;8.98;;;;;;;8.64;77.65;98923.41;5122338;28;20062;-74
2022/12/21 03:24:09;;;;;;;13.98;8.13;;;;;;;8.53;78.62;98925.28;5117068;28;20095;-75
2022/12/21 03:27:05;;;;;;;14.95;8.55;;;;;;;8.81;78.48;98921.09;5119951;28;20058;-75
2022/12/21 03:30:05;;;;;;;13.65;8.25;;;;;;;8.72;77.32;98893.66;5122766;28;20406;-75
2022/12/21 03:33:04;;;;;;;13.90;8.25;;;;;;;8.91;77.23;98914.03;5130935;28;20077;-75
2022/12/21 03:36:01;;;;;;;20.70;8.88;;;;;;;8.68;77.39;98898.38;5127905;28;20058;-75
2022/12/21 03:38:58;;;;;;;15.40;8.07;;;;;;;8.81;77.47;98902.59;5119525;28;20421;-75
2022/12/21 03:42:21;;;;;;;14.20;8.50;;;;;;;8.87;77.92;98910.81;5107118;28;20058;-74
2022/12/21 03:45:17;;;;;;;15.95;8.40;;;;;;;8.82;77.64;98917.47;5124196;28;20077;-74
2022/12/21 03:48:18;;;;;;;15.32;8.75;;;;;;;8.86;77.84;98897.72;5125575;28;20113;-75
2022/12/21 03:51:26;;;;;;;15.88;7.90;;;;;;;8.84;77.82;98894.34;5127155;28;20059;-75
2022/12/21 03:54:54;;;;;;;13.68;7.88;;;;;;;8.50;78.91;98867.41;5126826;28;20047;-75
2022/12/21 03:57:44;;;;;;;14.93;7.85;;;;;;;8.39;79.67;98890.31;5128606;28;20606;-74
2022/12/21 04:00:44;;;;;;;17.45;8.63;;;;;;;8.88;78.54;98895.78;5121676;28;20063;-75
2022/12/21 04:03:41;;;;;;;16.92;8.35;;;;;;;8.86;78.08;98900.34;5133460;28;20123;-74
2022/12/21 04:06:34;;;;;;;13.57;8.25;;;;;;;8.69;79.33;98891.28;5129343;28;20061;-74
2022/12/21 04:09:24;;;;;;;16.02;8.32;;;;;;;9.02;78.12;98890.09;5119903;28;20102;-75
2022/12/21 04:16:03;;;;;;;16.52;8.48;;;;;;;9.35;77.06;98891.53;5123959;28;20665;-74
2022/12/21 04:21:44;;;;;;;18.63;7.18;;;;;;;9.32;77.07;98888.31;5122928;28;20047;-75
2022/12/21 04:31:12;;;;;;;16.88;8.07;;;;;;;9.35;77.64;98898.63;5126478;28;20078;-74
2022/12/21 04:34:02;;;;;;;13.27;7.57;;;;;;;9.72;75.40;98898.75;5128375;28;20106;-74
2022/12/21 04:40:14;;;;;;;21.05;7.50;;;;;;;9.95;74.51;98894.00;5139165;28;20097;-75
2022/12/21 04:43:04;;;;;;;14.50;7.25;;;;;;;10.05;74.14;98893.97;5121430;28;20054;-75
2022/12/21 04:46:03;;;;;;;14.18;7.07;;;;;;;9.97;74.50;98892.06;5122001;28;20054;-75
2022/12/21 04:48:53;;;;;;;17.88;7.00;;;;;;;10.00;73.87;98896.22;5118561;28;20194;-74
2022/12/21 04:51:43;;;;;;;13.48;7.28;;;;;;;10.22;73.84;98893.22;5126409;28;20074;-75
2022/12/21 04:54:33;;;;;;;11.18;6.13;;;;;;;10.25;73.37;98900.91;5121586;29;20166;-75
2022/12/21 04:57:23;;;;;;;14.85;6.30;;;;;;;10.17;73.65;98890.19;5127129;28;20066;-74
2022/12/21 05:00:15;;;;;;;15.75;6.50;;;;;;;10.20;73.54;98884.59;5123653;28;20130;-75
2022/12/21 05:03:05;;;;;;;11.80;6.47;;;;;;;10.25;73.44;98886.81;5108751;29;20066;-74
2022/12/21 05:05:58;;;;;;;14.65;6.47;;;;;;;10.25;72.66;98889.47;5122186;28;20059;-74
2022/12/21 05:08:48;;;;;;;13.52;5.80;;;;;;;10.29;73.02;98896.16;5119884;28;20051;-75
2022/12/21 05:11:37;;;;;;;12.93;6.35;;;;;;;10.18;73.27;98881.25;5122342;28;20050;-74
2022/12/21 05:14:28;;;;;;;8.48;5.43;;;;;;;10.15;74.11;98889.50;5131196;28;20058;-75
2022/12/21 05:17:18;;;;;;;9.23;5.78;;;;;;;10.30;73.41;98893.41;5131877;28;20441;-75
2022/12/21 05:20:09;;;;;;;15.32;6.47;;;;;;;10.10;74.32;98889.94;5126626;28;20074;-74
2022/12/21 05:23:00;;;;;;;10.50;5.90;;;;;;;10.12;74.25;98893.25;5125091;28;20170;-74
2022/12/21 05:25:50;;;;;;;10.57;5.50;;;;;;;10.17;74.10;98890.19;5122997;28;20109;-75
2022/12/21 05:28:41;;;;;;;15.38;5.30;;;;;;;10.12;74.18;98889.78;5122158;28;20486;-74
2022/12/21 05:31:31;;;;;;;11.02;5.65;;;;;;;9.79;75.86;98873.38;5119555;28;20450;-74
2022/12/21 05:34:21;;;;;;;9.50;5.38;;;;;;;10.06;75.61;98882.41;5127622;28;20484;-74
2022/12/21 05:37:11;;;;;;;12.43;5.65;;;;;;;10.01;75.59;98860.81;5123013;28;20138;-75
2022/12/21 05:40:01;;;;;;;12.93;5.85;;;;;;;10.05;75.06;98880.72;5127899;28;20070;-75
2022/12/21 05:42:52;;;;;;;12.95;5.53;;;;;;;10.19;74.72;98885.56;5121891;28;20062;-75
2022/12/21 05:45:43;;;;;;;15.82;5.97;;;;;;;10.20;74.56;98876.66;5126215;28;20054;-75
2022/12/21 05:48:34;;;;;;;9.50;5.65;;;;;;;10.31;74.40;98876.50;5123674;28;20054;-75
2022/12/21 05:51:24;;;;;;;13.52;6.38;;;;;;;10.07;75.23;98874.31;5122563;28;20206;-75
2022/12/21 05:54:17;;;;;;;10.52;5.57;;;;;;;10.28;75.11;98878.59;5119775;28;20145;-75
2022/12/21 05:57:07;;;;;;;13.57;6.15;;;;;;;10.40;73.58;98876.59;5122849;28;20058;-75
2022/12/21 05:59:57;;;;;;;13.02;5.80;;;;;;;10.24;73.76;98856.84;5121305;28;20058;-74
2022/12/21 06:02:47;;;;;;;10.82;5.80;;;;;;;10.09;74.37;98859.09;5120790;29;20145;-75
2022/12/21 06:05:38;;;;;;;12.82;5.63;;;;;;;9.91;75.54;98862.66;5127723;28;20138;-74
2022/12/21 06:08:29;;;;;;;12.95;5.93;;;;;;;10.17;75.42;98873.47;5123747;28;20094;-75
2022/12/21 06:11:23;;;;;;;10.35;5.45;;;;;;;9.82;76.82;98870.47;5125249;28;20070;-74
2022/12/21 06:14:13;;;;;;;13.07;5.80;;;;;;;9.66;77.43;98864.91;5120638;28;20062;-75
2022/12/21 06:17:05;;;;;;;13.60;6.78;;;;;;;9.95;76.72;98869.31;5121104;28;20058;-74
2022/12/21 06:19:56;;;;;;;12.90;6.18;;;;;;;10.16;75.45;98874.44;5125069;28;20417;-75
2022/12/21 06:22:46;;;;;;;16.52;6.43;;;;;;;10.06;76.37;98874.44;5125350;28;20054;-74
2022/12/21 06:25:36;;;;;;;13.90;6.15;;;;;;;9.77;77.13;98867.41;5126339;28;20051;-74
2022/12/21 06:28:27;;;;;;;11.98;5.95;;;;;;;9.87;77.34;98856.81;5118801;28;20051;-74
2022/12/21 06:31:19;;;;;;;14.85;5.95;;;;;;;9.85;77.04;98850.81;5121172;28;20043;-74
2022/12/21 06:34:10;;;;;;;15.65;6.00;;;;;;;9.78;77.88;98871.72;5124939;28;20497;-74
2022/12/21 06:37:00;;;;;;;13.30;5.82;;;;;;;9.79;77.82;98872.56;5120240;28;20043;-74
2022/12/21 06:39:50;;;;;;;13.85;5.90;;;;;;;10.03;76.97;98880.91;5120219;28;20078;-74
2022/12/21 06:42:40;;;;;;;11.63;6.03;;;;;;;10.16;76.06;98883.19;5120348;28;20471;-74
2022/12/21 06:45:30;;;;;;;15.88;6.68;;;;;;;10.15;76.07;98886.84;5125182;28;20053;-75
2022/12/21 06:48:21;;;;;;;8.93;6.18;;;;;;;9.96;76.56;98868.34;5122279;28;20546;-74
2022/12/21 06:51:14;;;;;;;10.00;6.13;;;;;;;9.92;77.52;98864.31;5121926;28;20048;-73
2022/12/21 06:54:04;;;;;;;11.85;5.80;;;;;;;9.88;77.52;98880.50;5122056;28;20058;-74
2022/12/21 06:56:54;;;;;;;11.20;6.45;;;;;;;10.15;76.77;98878.06;5121895;28;20055;-75
2022/12/21 06:59:44;;;;;;;13.38;6.82;;;;;;;10.13;76.56;98883.50;5125897;28;20074;-74
2022/12/21 07:02:35;;;;;;;17.75;6.20;;;;;;;10.01;76.44;98882.84;5118794;28;20051;-74
2022/12/21 07:05:25;;;;;;;13.07;6.43;;;;;;;9.96;77.05;98889.53;5123891;28;20058;-74
2022/12/21 07:08:16;;;;;;;19.63;7.80;;;;;;;9.81;77.82;98887.34;5123167;28;20498;-74
2022/12/21 07:11:11;;;;;;;11.70;6.20;;;;;;;9.75;78.38;98869.38;5117327;28;20430;-74
2022/12/21 07:14:01;;;;;;;14.80;6.18;;;;;;;9.98;77.35;98890.25;5119453;29;20050;-74
2022/12/21 07:16:52;;;;;;;18.13;6.40;;;;;;;10.15;76.97;98892.13;5124019;28;20050;-74
2022/12/21 07:19:42;;;;;;;13.80;6.28;;;;;;;10.23;77.09;98896.72;5116020;28;20055;-74
2022/12/21 07:22:32;;;;;;;15.68;6.50;;;;;;;9.97;77.71;98884.09;5124653;28;20059;-74
2022/12/21 07:25:22;;;;;;;13.40;7.07;;;;;;;9.89;78.42;98887.44;5128159;28;20058;-74
2022/12/21 07:28:12;;;;;;;16.08;6.57;;;;;;;9.96;78.04;98890.38;5123311;28;20509;-74
2022/12/21 07:31:13;;;;;;;14.73;6.78;;;;;;;10.18;77.90;98901.63;5126794;28;20050;-76
2022/12/21 07:34:04;;;;;;;14.00;6.18;;;;;;;10.43;76.14;98892.22;5129297;28;20517;-74
2022/12/21 07:36:54;;;;;;;13.10;6.30;;;;;;;10.35;76.71;98895.59;5125920;28;20413;-74
2022/12/21 07:39:43;;;;;;;17.02;6.95;;;;;;;10.41;77.11;98895.03;5127115;28;20073;-74
2022/12/21 07:42:34;;;;;;;19.10;6.25;;;;;;;10.57;75.20;98900.53;5116205;28;20133;-75
2022/12/21 07:45:30;;;;;;;14.02;6.78;;;;;;;10.60;75.59;98899.44;5125140;28;20051;-75
2022/12/21 07:48:22;;;;;;;14.93;6.50;;;;;;;10.65;76.20;98897.16;5127675;28;20055;-75
2022/12/21 07:51:19;;;;;;;14.80;6.78;;;;;;;10.84;75.44;98893.56;5127756;28;20066;-75
2022/12/21 07:54:09;;;;;;;13.65;6.38;;;;;;;10.92;74.82;98898.13;5130208;28;20043;-75
2022/12/21 07:56:59;;;;;;;10.52;6.03;;;;;;;10.95;74.26;98897.84;5126052;28;20047;-75
2022/12/21 07:59:50;;;;;;;13.55;6.22;;;;;;;11.00;74.61;98898.25;5120685;28;20059;-75
2022/12/21 08:02:40;;;;;;;13.68;7.18;;;;;;;11.04;73.72;98900.44;5120774;28;20075;-75
2022/12/21 08:05:30;;;;;;;20.45;7.95;;;;;;;11.10;74.08;98901.66;5131920;28;20106;-74
2022/12/21 08:08:20;;;;;;;17.70;7.50;;;;;;;11.03;74.50;98897.94;5128431;28;20140;-74
2022/12/21 08:11:14;;;;;;;16.98;8.05;;;;;;;11.13;73.78;98900.53;5125108;28;20167;-75
2022/12/21 08:14:04;;;;;;;23.67;8.18;;;;;;;11.16;73.86;98900.22;5124407;28;20122;-76
2022/12/21 08:16:55;;;;;;;12.85;7.13;;;;;;;10.96;74.40;98894.19;5123389;28;20109;-76
2022/12/21 08:19:44;;;;;;;12.68;7.55;;;;;;;11.08;74.38;98908.09;5132342;28;20051;-75
2022/12/21 08:22:35;;;;;;;18.20;7.05;;;;;;;11.15;74.29;98909.16;5125022;28;20066;-75
2022/12/21 08:25:26;;;;;;;13.45;5.85;;;;;;;11.29;73.69;98913.94;5126660;28;20053;-73
2022/12/21 08:28:16;;;;;;;10.55;6.07;;;;;;;11.06;74.20;98884.38;5128006;28;20608;-74
2022/12/21 08:31:09;;;;;;;11.13;5.32;;;;;;;11.26;74.06;98912.47;5120663;28;20047;-75
2022/12/21 08:33:59;;;;;;;13.02;5.43;;;;;;;11.24;74.51;98921.53;5125279;28;20051;-72
2022/12/21 08:36:50;;;;;;;9.30;5.60;;;;;;;11.21;73.71;98909.41;5118915;28;20133;-70
2022/12/21 08:39:40;;;;;;;11.45;5.55;;;;;;;11.18;74.18;98922.97;5123489;28;20051;-72
2022/12/21 08:42:30;;;;;;;11.00;4.97;;;;;;;11.19;74.33;98919.34;5128730;28;20433;-73
2022/12/21 08:45:23;;;;;;;13.48;4.55;;;;;;;11.20;74.13;98918.34;5132781;28;20051;-75
2022/12/21 08:48:14;;;;;;;12.75;4.50;;;;;;;11.32;74.43;98915.47;5126367;28;20059;-72
2022/12/21 08:51:07;;;;;;;9.77;3.97;;;;;;;11.39;74.35;98912.09;5130457;28;20062;-73
2022/12/21 08:53:57;;;;;;;7.80;4.10;;;;;;;11.48;74.14;98921.78;5129518;28;20054;-72
2022/12/21 08:56:47;;;;;;;13.48;3.85;;;;;;;11.60;73.75;98913.59;5118160;28;20054;-71
2022/12/21 08:59:37;;;;;;;8.02;3.55;;;;;;;11.59;74.09;98928.72;5126873;28;20437;-73
2022/12/21 09:02:33;;;;;;;11.70;3.58;;;;;;;11.53;74.08;98919.53;5127892;28;20069;-72
2022/12/21 09:05:24;;;;;;;6.13;3.30;;;;;;;11.64;74.14;98926.41;5128948;28;20413;-72
2022/12/21 09:08:14;;;;;;;9.90;3.40;;;;;;;11.82;73.06;98928.22;5129363;28;20145;-72
2022/12/21 09:11:10;;;;;;;11.50;3.92;;;;;;;11.75;73.49;98918.22;5107322;28;20070;-73
2022/12/21 09:14:00;;;;;;;7.38;3.50;;;;;;;11.63;73.65;98924.75;5128055;28;20442;-73
2022/12/21 09:16:51;;;;;;;7.78;3.35;;;;;;;11.69;73.69;98924.16;5119499;28;20663;-73
2022/12/21 09:19:42;;;;;;;5.30;3.30;;;;;;;11.69;73.79;98926.81;5132458;28;20182;-73
2022/12/21 09:22:32;;;;;;;6.55;2.97;;;;;;;11.55;73.81;98916.69;5114929;28;20201;-73
2022/12/21 09:25:22;;;;;;;5.65;3.40;;;;;;;11.60;73.73;98918.91;5117086;28;20556;-73
2022/12/21 09:28:12;;;;;;;8.32;3.33;;;;;;;11.39;74.59;98943.09;5116022;28;20059;-73
2022/12/21 09:31:10;;;;;;;7.15;3.20;;;;;;;11.58;73.90;98942.13;5117403;28;20464;-72
2022/12/21 09:34:01;;;;;;;16.00;6.85;;;;;;;11.51;73.87;98933.94;5128864;28;20061;-71
2022/12/21 09:36:51;;;;;;;35.55;14.25;;;;;;;11.47;73.25;98943.19;5115032;28;20050;-72
2022/12/21 09:40:04;;;;;;;29.45;14.43;;;;;;;11.46;72.90;98944.19;5113493;28;20062;-75
2022/12/21 09:43:18;;;;;;;41.70;20.67;;;;;;;11.39;72.95;98941.28;5124435;28;20121;-73
2022/12/21 09:46:11;;;;;;;33.88;15.18;;;;;;;11.41;73.41;98931.34;5123855;28;20517;-75
2022/12/21 09:49:07;;;;;;;32.63;18.20;;;;;;;11.27;73.31;98922.06;5115595;28;20062;-74
2022/12/21 09:52:01;;;;;;;41.08;20.15;;;;;;;11.43;72.86;98950.63;5125733;28;20058;-74
2022/12/21 09:55:13;;;;;;;39.08;20.60;;;;;;;11.39;73.34;98948.41;5122165;28;20132;-74
2022/12/21 09:58:11;;;;;;;38.83;20.15;;;;;;;11.47;73.11;98956.47;5117231;29;20059;-74
2022/12/21 10:01:28;;;;;;;38.95;20.05;;;;;;;11.53;73.07;98954.03;5149687;23;20047;-84
2022/12/21 10:04:55;;;;;;;38.45;16.38;;;;;;;11.53;73.37;98939.94;5148134;28;20106;-84
2022/12/21 10:08:25;;;;;;;18.92;10.43;;;;;;;11.39;73.46;98897.97;5144798;28;20189;-83
2022/12/21 10:11:42;;;;;;;8.10;4.18;;;;;;;11.87;73.75;98948.06;5141638;28;20053;-83
2022/12/21 10:14:57;;;;;;;6.60;3.70;;;;;;;11.88;73.62;98931.13;5151752;28;20077;-82
2022/12/21 10:18:18;;;;;;;8.50;3.95;;;;;;;11.94;73.04;98932.34;5143285;28;20054;-84
2022/12/21 10:21:25;;;;;;;10.05;4.15;;;;;;;11.96;72.98;98938.34;5144800;28;20138;-82
2022/12/21 10:24:27;;;;;;;9.43;3.88;;;;;;;12.15;72.97;98953.25;5148917;28;20125;-83
2022/12/21 10:27:29;;;;;;;9.48;3.92;;;;;;;11.97;73.39;98921.41;5160503;28;20053;-83
2022/12/21 10:30:19;;;;;;;6.55;3.80;;;;;;;12.18;73.03;98944.97;5141765;28;20110;-83
2022/12/21 10:33:12;;;;;;;18.20;4.05;;;;;;;12.19;72.54;98931.53;5145272;28;20053;-82
2022/12/21 10:36:04;;;;;;;9.57;3.95;;;;;;;12.09;73.00;98945.94;5151174;28;20047;-83
2022/12/21 10:38:54;;;;;;;6.13;4.07;;;;;;;12.07;72.31;98935.44;5141441;28;20055;-83
2022/12/21 10:41:52;;;;;;;8.32;4.47;;;;;;;11.99;72.82;98951.34;5144860;28;20053;-82
2022/12/21 10:44:43;;;;;;;9.25;4.57;;;;;;;11.98;72.86;98936.34;5145153;28;20054;-84
2022/12/21 10:47:33;;;;;;;33.70;17.52;;;;;;;11.94;73.24;98935.00;5125579;28;20517;-82
2022/12/21 10:50:30;;;;;;;53.53;21.85;;;;;;;12.03;73.33;98957.16;5131660;28;20051;-82
2022/12/21 10:53:26;;;;;;;46.15;23.63;;;;;;;12.06;73.11;98948.91;5142331;28;20061;-83
2022/12/21 10:56:16;;;;;;;42.65;21.10;;;;;;;12.05;73.09;98932.09;5156931;28;20543;-82
2022/12/21 10:59:18;;;;;;;41.28;17.75;;;;;;;12.07;72.71;98938.09;5146055;28;20053;-83
2022/12/21 11:02:39;;;;;;;39.92;16.45;;;;;;;12.18;73.15;98948.47;5145405;28;20065;-83
2022/12/21 11:05:38;;;;;;;27.10;13.30;;;;;;;12.28;73.73;98936.91;5132304;28;20408;-83
2022/12/21 11:08:32;;;;;;;16.42;8.77;;;;;;;12.36;72.83;98913.03;5125716;28;20110;-83
2022/12/21 11:11:38;;;;;;;11.35;5.90;;;;;;;12.42;72.38;98921.22;5132232;28;20051;-84
2022/12/21 11:14:37;;;;;;;11.60;4.95;;;;;;;12.36;72.14;98918.38;5131041;28;20624;-83
2022/12/21 11:17:31;;;;;;;15.27;5.35;;;;;;;12.22;72.36;98898.50;5156058;28;20047;-83
2022/12/21 11:20:24;;;;;;;12.70;4.45;;;;;;;12.42;70.90;98917.75;5137499;28;20061;-84
2022/12/21 11:23:15;;;;;;;10.48;5.00;;;;;;;12.43;71.86;98933.53;5157133;28;20072;-82
2022/12/21 11:26:15;;;;;;;9.95;5.05;;;;;;;12.22;72.41;98880.72;5137179;28;20051;-84
2022/12/21 11:29:15;;;;;;;8.95;4.55;;;;;;;12.47;71.70;98910.09;5143080;28;20062;-83
2022/12/21 11:32:12;;;;;;;16.48;6.18;;;;;;;12.63;72.05;98883.59;5139894;28;20706;-82
2022/12/21 11:35:05;;;;;;;9.10;5.20;;;;;;;12.88;72.54;98899.66;5132768;28;20573;-83
2022/12/21 11:38:06;;;;;;;8.32;4.32;;;;;;;13.02;71.16;98893.72;5144025;28;20053;-84
2022/12/21 11:40:59;;;;;;;6.63;3.85;;;;;;;13.28;70.88;98903.47;5135009;28;20047;-85
2022/12/21 11:43:50;;;;;;;7.25;3.70;;;;;;;13.46;69.67;98906.00;5131261;28;20521;-82
2022/12/21 11:46:50;;;;;;;7.10;3.70;;;;;;;13.52;69.33;98889.38;5139573;28;20055;-82
2022/12/21 11:50:04;;;;;;;5.25;3.80;;;;;;;13.51;68.67;98893.88;5133140;28;20185;-84
2022/12/21 11:53:20;;;;;;;6.95;3.53;;;;;;;13.48;69.77;98909.34;5133629;28;20111;-82
2022/12/21 11:56:32;;;;;;;6.57;3.38;;;;;;;13.65;68.33;98896.88;5138922;28;20053;-82
2022/12/21 11:59:47;;;;;;;13.70;4.03;;;;;;;13.42;70.70;98900.16;5159685;28;20585;-84
2022/12/21 12:02:43;;;;;;;7.18;3.72;;;;;;;13.54;69.68;98893.53;5152737;28;20101;-84
2022/12/21 12:05:43;;;;;;;6.20;3.28;;;;;;;13.56;70.08;98893.34;5137397;28;20113;-84
2022/12/21 12:09:07;;;;;;;4.85;3.22;;;;;;;13.54;69.37;98868.69;5146377;28;20069;-85
2022/12/21 12:11:57;;;;;;;6.10;3.40;;;;;;;13.69;70.23;98893.69;5163515;28;20055;-84
2022/12/21 12:14:53;;;;;;;7.88;2.92;;;;;;;13.67;69.65;98894.84;5157934;28;20365;-83
2022/12/21 12:18:09;;;;;;;6.65;3.25;;;;;;;13.56;70.51;98899.50;5154664;28;20212;-84
2022/12/21 12:21:06;;;;;;;6.32;3.08;;;;;;;13.46;70.46;98887.34;5142967;28;20043;-85
2022/12/21 12:24:05;;;;;;;4.28;2.63;;;;;;;13.56;70.42;98888.03;5137682;28;20051;-85
2022/12/21 12:27:12;;;;;;;4.72;2.67;;;;;;;13.63;70.10;98881.03;5154093;28;20058;-83
2022/12/21 12:30:12;;;;;;;4.90;2.17;;;;;;;13.39;70.25;98873.84;5153788;28;20053;-85
2022/12/21 12:33:25;;;;;;;5.28;2.15;;;;;;;13.69;70.47;98877.72;5155304;28;20046;-85
2022/12/21 12:36:21;;;;;;;3.38;2.33;;;;;;;13.67;69.12;98873.53;5160078;28;20053;-84
2022/12/21 12:39:32;;;;;;;1.92;1.70;;;;;;;13.76;68.75;98873.38;5150986;28;20054;-85
2022/12/21 12:42:46;;;;;;;1.67;1.50;;;;;;;13.71;68.54;98864.19;5154388;28;20626;-84
2022/12/21 12:45:46;;;;;;;4.00;2.20;;;;;;;13.75;69.53;98861.06;5152092;28;20521;-85
2022/12/21 12:48:58;;;;;;;3.72;2.10;;;;;;;13.83;69.34;98863.69;5157322;28;20306;-81
2022/12/21 12:52:02;;;;;;;3.28;1.77;;;;;;;13.89;67.95;98861.38;5152165;28;20554;-81
2022/12/21 12:55:17;;;;;;;2.92;1.67;;;;;;;13.90;67.55;98869.19;5147538;28;20050;-81
2022/12/21 12:58:24;;;;;;;3.22;2.08;;;;;;;13.71;67.46;98833.09;5161014;28;20061;-81
2022/12/21 13:01:41;;;;;;;3.10;1.92;;;;;;;13.77;66.22;98834.22;5153052;28;20060;-81
2022/12/21 13:04:38;;;;;;;4.45;1.98;;;;;;;13.90;65.73;98850.53;5152220;28;20061;-81
2022/12/21 13:07:54;;;;;;;1.95;1.60;;;;;;;13.86;67.11;98860.69;5151798;28;20590;-85
2022/12/21 13:11:07;;;;;;;4.80;2.03;;;;;;;13.72;68.00;98860.56;5144410;28;20449;-85
2022/12/21 13:14:04;;;;;;;2.88;1.85;;;;;;;13.42;67.60;98822.09;5153292;28;20081;-84
2022/12/21 13:17:08;;;;;;;4.05;2.13;;;;;;;13.65;68.20;98867.56;5154463;28;20107;-84
2022/12/21 13:20:00;;;;;;;2.38;1.90;;;;;;;13.50;68.42;98848.72;5142435;28;20101;-84
2022/12/21 13:23:02;;;;;;;2.00;1.75;;;;;;;13.52;69.25;98850.22;5148662;28;20132;-84
2022/12/21 13:25:59;;;;;;;4.35;2.30;;;;;;;13.54;69.58;98864.22;5146753;28;20058;-85
2022/12/21 13:29:11;;;;;;;4.05;2.47;;;;;;;13.37;69.49;98836.72;5150595;28;20065;-83
2022/12/21 13:32:11;;;;;;;4.60;2.63;;;;;;;13.42;69.85;98856.72;5154156;28;20062;-83
2022/12/21 13:35:16;;;;;;;5.93;2.97;;;;;;;13.51;69.25;98864.56;5152990;28;20106;-83
2022/12/21 13:38:20;;;;;;;9.05;4.10;;;;;;;13.51;69.30;98863.69;5140495;28;20061;-82
2022/12/21 13:41:16;;;;;;;4.15;2.28;;;;;;;13.42;70.36;98865.53;5151493;28;20117;-85
2022/12/21 13:44:21;;;;;;;8.88;2.30;;;;;;;13.58;67.98;98859.41;5151847;28;20049;-83
2022/12/21 13:47:12;;;;;;;3.38;1.92;;;;;;;13.33;68.13;98827.41;5134740;28;20145;-83
2022/12/21 13:50:21;;;;;;;4.72;1.88;;;;;;;13.59;67.73;98861.88;5135935;28;20421;-83
2022/12/21 13:53:24;;;;;;;2.42;1.50;;;;;;;13.74;66.48;98859.41;5136934;28;20047;-82
2022/12/21 13:56:23;;;;;;;2.35;1.50;;;;;;;13.45;66.91;98824.44;5152882;28;20110;-82
2022/12/21 13:59:17;;;;;;;3.05;2.03;;;;;;;13.47;67.27;98849.06;5155083;28;20057;-84
2022/12/21 14:02:26;;;;;;;2.80;1.77;;;;;;;13.68;66.57;98851.25;5157878;28;20058;-84
2022/12/21 14:05:23;;;;;;;2.10;1.73;;;;;;;13.70;66.55;98830.56;5123794;28;20061;-84